Time;durP1;ratioP1;P1;durP2;ratioP2;P2;SDS_P1;SDS_P2;PMS_P1;PMS_P2;Temp;Humidity;BMP_temperature;BMP_pressure;BME280_temperature;BME280_humidity;BME280_pressure;Samples;Min_cycle;Max_cycle;Signal;HPM_P1;HPM_P2
2022/09/21 00:01:43;;;;;;;;;;;10.30;99.90;;;;;;5008890;28;20367;-70
2022/09/21 00:04:10;;;;;;;;;;;10.30;99.90;;;;;;5010486;28;19940;-70
2022/09/21 00:06:37;;;;;;;;;;;10.30;99.90;;;;;;5008854;28;19921;-70
2022/09/21 00:09:04;;;;;;;;;;;10.30;99.90;;;;;;5008448;28;20231;-70
2022/09/21 00:11:32;;;;;;;;;;;10.30;99.90;;;;;;5008017;28;19966;-70
2022/09/21 00:14:01;;;;;;;;;;;10.20;99.90;;;;;;4991125;28;19935;-70
2022/09/21 00:16:28;;;;;;;;;;;10.20;99.90;;;;;;5009944;28;20324;-70
2022/09/21 00:18:55;;;;;;;;;;;10.10;99.90;;;;;;5008787;28;19943;-70
2022/09/21 00:21:23;;;;;;;;;;;10.10;99.90;;;;;;5007274;28;19925;-70
2022/09/21 00:23:50;;;;;;;;;;;10.10;99.90;;;;;;5010556;28;19920;-70
2022/09/21 00:26:18;;;;;;;;;;;10.00;99.90;;;;;;5009098;28;20360;-70
2022/09/21 00:28:45;;;;;;;;;;;10.00;99.90;;;;;;5009078;28;19917;-70
2022/09/21 00:31:13;;;;;;;;;;;10.00;99.90;;;;;;5009203;28;19927;-70
2022/09/21 00:33:40;;;;;;;;;;;10.00;99.90;;;;;;5007667;28;19961;-70
2022/09/21 00:36:08;;;;;;;;;;;10.00;99.90;;;;;;5007439;28;20004;-70
2022/09/21 00:38:36;;;;;;;;;;;10.00;99.90;;;;;;5006149;28;19929;-72
2022/09/21 00:41:03;;;;;;;;;;;10.00;99.90;;;;;;5007194;28;19951;-70
2022/09/21 00:43:33;;;;;;;;;;;10.00;99.90;;;;;;5007392;28;19917;-70
2022/09/21 00:46:01;;;;;;;;;;;10.00;99.90;;;;;;5006449;28;20282;-70
2022/09/21 00:48:28;;;;;;;;;;;10.00;99.90;;;;;;5008291;28;19925;-70
2022/09/21 00:50:58;;;;;;;;;;;10.00;99.90;;;;;;5009336;28;20020;-71
2022/09/21 00:53:26;;;;;;;;;;;10.00;99.90;;;;;;5004008;28;19921;-70
2022/09/21 00:55:54;;;;;;;;;;;10.00;99.90;;;;;;5008579;28;19953;-70
2022/09/21 00:58:26;;;;;;;;;;;10.00;99.90;;;;;;5008674;28;20012;-70
2022/09/21 01:00:54;;;;;;;;;;;10.00;99.90;;;;;;5008191;28;19975;-70
2022/09/21 01:03:20;;;;;;;;;;;10.00;99.90;;;;;;5007868;28;19924;-70
2022/09/21 01:05:47;;;;;;;;;;;10.00;99.90;;;;;;5009275;28;20008;-69
2022/09/21 01:08:15;;;;;;;;;;;10.00;99.90;;;;;;5007997;28;20226;-70
2022/09/21 01:11:01;;;;;;;;;;;10.00;99.90;;;;;;5009640;28;19917;-70
2022/09/21 01:13:37;;;;;;;;;;;10.00;99.90;;;;;;4998971;28;20020;-70
2022/09/21 01:16:12;;;;;;;;;;;10.00;99.90;;;;;;5006315;28;19956;-70
2022/09/21 01:18:50;;;;;;;;;;;10.10;99.90;;;;;;5008445;28;19961;-70
2022/09/21 01:21:21;;;;;;;;;;;10.10;99.90;;;;;;5004857;28;20365;-69
2022/09/21 01:24:04;;;;;;;;;;;10.10;99.90;;;;;;5008334;28;19925;-70
2022/09/21 01:26:40;;;;;;;;;;;10.10;99.90;;;;;;5003282;28;19928;-70
2022/09/21 01:29:13;;;;;;;;;;;10.10;99.90;;;;;;5007200;28;20355;-70
2022/09/21 01:31:49;;;;;;;;;;;10.10;99.90;;;;;;5004273;28;19925;-70
2022/09/21 01:34:24;;;;;;;;;;;10.10;99.90;;;;;;5004624;28;19917;-70
2022/09/21 01:36:53;;;;;;;;;;;10.10;99.90;;;;;;5006723;28;19928;-70
2022/09/21 01:39:22;;;;;;;;;;;10.10;99.90;;;;;;5005867;28;19945;-70
2022/09/21 01:41:50;;;;;;;;;;;10.00;99.90;;;;;;4989420;28;19931;-70
2022/09/21 01:44:19;;;;;;;;;;;9.90;99.90;;;;;;5006654;28;20298;-70
2022/09/21 01:46:47;;;;;;;;;;;9.90;99.90;;;;;;5009398;28;19921;-70
2022/09/21 01:49:20;;;;;;;;;;;9.90;99.90;;;;;;5005566;28;19917;-69
2022/09/21 01:51:49;;;;;;;;;;;9.80;99.90;;;;;;5001180;28;19932;-70
2022/09/21 01:54:20;;;;;;;;;;;9.80;99.90;;;;;;5005158;28;20419;-70
2022/09/21 01:56:50;;;;;;;;;;;9.80;99.90;;;;;;5003924;28;19928;-70
2022/09/21 01:59:20;;;;;;;;;;;9.70;99.90;;;;;;5001882;28;19918;-70
2022/09/21 02:01:50;;;;;;;;;;;9.70;99.90;;;;;;5004691;28;19925;-70
2022/09/21 02:04:17;;;;;;;;;;;9.70;99.90;;;;;;5006613;28;20032;-70
2022/09/21 02:06:45;;;;;;;;;;;9.70;99.90;;;;;;5001561;28;20578;-70
2022/09/21 02:09:13;;;;;;;;;;;9.70;99.90;;;;;;5003043;28;20020;-70
2022/09/21 02:11:42;;;;;;;;;;;9.70;99.90;;;;;;5002406;28;19939;-70
2022/09/21 02:14:10;;;;;;;;;;;9.60;99.90;;;;;;5002144;28;19917;-70
2022/09/21 02:16:56;;;;;;;;;;;9.60;99.90;;;;;;5004727;28;19917;-69
2022/09/21 02:19:29;;;;;;;;;;;9.50;99.90;;;;;;5000072;28;19927;-69
2022/09/21 02:21:58;;;;;;;;;;;9.50;99.90;;;;;;5002862;28;19922;-70
2022/09/21 02:24:31;;;;;;;;;;;9.50;99.90;;;;;;5004550;28;19921;-70
2022/09/21 02:27:05;;;;;;;;;;;9.50;99.90;;;;;;5001261;28;20024;-70
2022/09/21 02:29:50;;;;;;;;;;;9.50;99.90;;;;;;5004051;28;20406;-70
2022/09/21 02:32:26;;;;;;;;;;;9.50;99.90;;;;;;5007686;28;20327;-69
2022/09/21 02:35:02;;;;;;;;;;;9.40;99.90;;;;;;5005943;28;19928;-69
2022/09/21 02:37:36;;;;;;;;;;;9.40;99.90;;;;;;5002401;28;20358;-70
2022/09/21 02:40:08;;;;;;;;;;;9.40;99.90;;;;;;5006339;28;20059;-70
2022/09/21 02:42:38;;;;;;;;;;;9.40;99.90;;;;;;5002614;28;19961;-70
2022/09/21 02:45:08;;;;;;;;;;;9.40;99.90;;;;;;5008251;28;19918;-70
2022/09/21 02:47:41;;;;;;;;;;;9.40;99.90;;;;;;5005527;28;20335;-69
2022/09/21 02:50:11;;;;;;;;;;;9.40;99.90;;;;;;5008518;28;20298;-70
2022/09/21 02:52:39;;;;;;;;;;;9.30;99.90;;;;;;5006672;28;19922;-70
2022/09/21 02:55:07;;;;;;;;;;;9.30;99.90;;;;;;5005543;28;19921;-70
2022/09/21 02:57:35;;;;;;;;;;;9.30;99.90;;;;;;5007018;28;19917;-70
2022/09/21 03:00:01;;;;;;;;;;;9.40;99.90;;;;;;5008259;28;20028;-69
2022/09/21 03:02:35;;;;;;;;;;;9.40;99.90;;;;;;5007351;28;20012;-70
2022/09/21 03:05:02;;;;;;;;;;;9.40;99.90;;;;;;5008384;28;20011;-70
2022/09/21 03:07:29;;;;;;;;;;;9.50;99.90;;;;;;5004872;28;19927;-70
2022/09/21 03:09:56;;;;;;;;;;;9.50;99.90;;;;;;5007944;28;20299;-70
2022/09/21 03:12:23;;;;;;;;;;;9.60;99.90;;;;;;5007219;28;19978;-70
2022/09/21 03:14:50;;;;;;;;;;;9.60;99.90;;;;;;5008850;28;19963;-71
2022/09/21 03:17:17;;;;;;;;;;;9.60;99.90;;;;;;5002611;28;20391;-71
2022/09/21 03:19:44;;;;;;;;;;;9.60;99.90;;;;;;5006275;28;19944;-70
2022/09/21 03:22:10;;;;;;;;;;;9.60;99.90;;;;;;5006555;28;20299;-70
2022/09/21 03:24:46;;;;;;;;;;;9.70;99.90;;;;;;5008426;28;19930;-69
2022/09/21 03:27:14;;;;;;;;;;;9.70;99.90;;;;;;5005543;28;20016;-69
2022/09/21 03:29:41;;;;;;;;;;;9.70;99.90;;;;;;5007991;28;20021;-70
2022/09/21 03:32:08;;;;;;;;;;;9.70;99.90;;;;;;5008650;28;19918;-70
2022/09/21 03:34:35;;;;;;;;;;;9.70;99.90;;;;;;5006694;28;19980;-70
2022/09/21 03:37:03;;;;;;;;;;;9.80;99.90;;;;;;5006594;28;19918;-70
2022/09/21 03:39:30;;;;;;;;;;;9.80;99.90;;;;;;5005439;28;19922;-70
2022/09/21 03:41:57;;;;;;;;;;;9.80;99.90;;;;;;5007192;28;19917;-70
2022/09/21 03:44:24;;;;;;;;;;;9.80;99.90;;;;;;5003561;28;20017;-70
2022/09/21 03:46:51;;;;;;;;;;;9.80;99.90;;;;;;4992748;28;19925;-71
2022/09/21 03:49:18;;;;;;;;;;;9.80;99.90;;;;;;5004448;28;19924;-70
2022/09/21 03:51:45;;;;;;;;;;;9.80;99.90;;;;;;5005222;28;19929;-70
2022/09/21 03:54:12;;;;;;;;;;;9.80;99.90;;;;;;5006566;28;19960;-70
2022/09/21 03:56:39;;;;;;;;;;;9.80;99.90;;;;;;5007462;28;19917;-70
2022/09/21 03:59:06;;;;;;;;;;;9.80;99.90;;;;;;5006667;28;19921;-71
2022/09/21 04:01:39;;;;;;;;;;;9.90;99.90;;;;;;4983151;28;20012;-70
2022/09/21 04:04:06;;;;;;;;;;;9.90;99.90;;;;;;4986970;28;20036;-70
2022/09/21 04:06:33;;;;;;;;;;;9.90;99.90;;;;;;4985995;28;20326;-70
2022/09/21 04:09:01;;;;;;;;;;;9.90;99.90;;;;;;4986507;28;19924;-70
2022/09/21 04:11:30;;;;;;;;;;;9.80;99.90;;;;;;4985622;28;19953;-70
2022/09/21 04:13:56;;;;;;;;;;;9.80;99.90;;;;;;4984671;28;19918;-70
2022/09/21 04:16:24;;;;;;;;;;;9.80;99.90;;;;;;4989548;28;19928;-70
2022/09/21 04:18:51;;;;;;;;;;;9.80;99.90;;;;;;4987935;28;20395;-70
2022/09/21 04:21:18;;;;;;;;;;;9.80;99.90;;;;;;4985001;28;20036;-70
2022/09/21 04:23:45;;;;;;;;;;;9.80;99.90;;;;;;4989815;28;19918;-70
2022/09/21 04:26:19;;;;;;;;;;;9.80;99.90;;;;;;4990143;28;19972;-70
2022/09/21 04:28:45;;;;;;;;;;;9.80;99.90;;;;;;4988953;28;19977;-71
2022/09/21 04:31:12;;;;;;;;;;;9.80;99.90;;;;;;4988715;28;20008;-70
2022/09/21 04:33:40;;;;;;;;;;;9.80;99.90;;;;;;4987086;28;20472;-70
2022/09/21 04:36:07;;;;;;;;;;;9.80;99.90;;;;;;4988985;28;20028;-70
2022/09/21 04:38:33;;;;;;;;;;;9.80;99.90;;;;;;4988700;28;19993;-70
2022/09/21 04:41:02;;;;;;;;;;;9.70;99.90;;;;;;4989922;28;19918;-70
2022/09/21 04:43:29;;;;;;;;;;;9.70;99.90;;;;;;4985676;28;19957;-70
2022/09/21 04:45:55;;;;;;;;;;;9.70;99.90;;;;;;4986013;28;19921;-70
2022/09/21 04:48:22;;;;;;;;;;;9.70;99.90;;;;;;4988962;28;19917;-70
2022/09/21 04:50:49;;;;;;;;;;;9.70;99.90;;;;;;4991717;28;19918;-70
2022/09/21 04:53:16;;;;;;;;;;;9.70;99.90;;;;;;4986332;28;20021;-69
2022/09/21 04:55:44;;;;;;;;;;;9.70;99.90;;;;;;4986322;28;19917;-70
2022/09/21 04:58:10;;;;;;;;;;;9.70;99.90;;;;;;4986039;28;19934;-70
2022/09/21 05:00:37;;;;;;;;;;;9.60;99.90;;;;;;4985080;28;19929;-70
2022/09/21 05:03:04;;;;;;;;;;;9.60;99.90;;;;;;4985786;28;19945;-70
2022/09/21 05:05:31;;;;;;;;;;;9.60;99.90;;;;;;4987655;28;19917;-70
2022/09/21 05:07:58;;;;;;;;;;;9.60;99.90;;;;;;4986466;28;19921;-70
2022/09/21 05:10:25;;;;;;;;;;;9.60;99.90;;;;;;4988462;28;19971;-70
2022/09/21 05:12:52;;;;;;;;;;;9.60;99.90;;;;;;4987493;28;20459;-70
2022/09/21 05:15:20;;;;;;;;;;;9.70;99.90;;;;;;4985641;28;19918;-69
2022/09/21 05:17:47;;;;;;;;;;;9.70;99.90;;;;;;4987925;28;20415;-70
2022/09/21 05:20:14;;;;;;;;;;;9.70;99.90;;;;;;4987740;28;19925;-70
2022/09/21 05:22:41;;;;;;;;;;;9.70;99.90;;;;;;4986533;28;19922;-70
2022/09/21 05:25:08;;;;;;;;;;;9.70;99.90;;;;;;4987711;28;19961;-70
2022/09/21 05:27:35;;;;;;;;;;;9.70;99.90;;;;;;4985779;28;19928;-70
2022/09/21 05:30:01;;;;;;;;;;;9.80;99.90;;;;;;4985231;28;19928;-70
2022/09/21 05:32:40;;;;;;;;;;;9.80;99.90;;;;;;4985310;28;19972;-70
2022/09/21 05:35:07;;;;;;;;;;;9.80;99.90;;;;;;4983720;28;20362;-70
2022/09/21 05:37:43;;;;;;;;;;;9.80;99.90;;;;;;4979851;28;19922;-70
2022/09/21 05:40:10;;;;;;;;;;;9.90;99.90;;;;;;4979423;28;19925;-71
2022/09/21 05:42:37;;;;;;;;;;;9.90;99.90;;;;;;4986564;28;20060;-70
2022/09/21 05:45:05;;;;;;;;;;;9.90;99.90;;;;;;4989824;28;20098;-70
2022/09/21 05:47:32;;;;;;;;;;;9.90;99.90;;;;;;4985759;28;19957;-70
2022/09/21 05:50:04;;;;;;;;;;;9.90;99.90;;;;;;4984980;28;19929;-70
2022/09/21 05:52:42;;;;;;;;;;;9.90;99.90;;;;;;4986909;28;20012;-70
2022/09/21 05:55:24;;;;;;;;;;;10.00;99.90;;;;;;4987423;28;19997;-70
2022/09/21 05:57:54;;;;;;;;;;;10.00;99.90;;;;;;4984892;28;19917;-70
2022/09/21 06:00:22;;;;;;;;;;;10.00;99.90;;;;;;4983490;28;19917;-70
2022/09/21 06:02:58;;;;;;;;;;;10.10;99.90;;;;;;4987792;28;19918;-70
2022/09/21 06:05:25;;;;;;;;;;;10.00;99.90;;;;;;4998832;28;20012;-69
2022/09/21 06:07:52;;;;;;;;;;;10.10;99.90;;;;;;4986562;28;20019;-69
2022/09/21 06:10:19;;;;;;;;;;;10.10;99.90;;;;;;4984190;28;19930;-70
2022/09/21 06:12:45;;;;;;;;;;;10.20;99.90;;;;;;4979251;28;20332;-69
2022/09/21 06:15:13;;;;;;;;;;;10.20;99.90;;;;;;4986010;28;20263;-70
2022/09/21 06:17:39;;;;;;;;;;;10.20;99.90;;;;;;4982742;28;19917;-69
2022/09/21 06:20:06;;;;;;;;;;;10.30;99.90;;;;;;4984744;28;20052;-69
2022/09/21 06:22:33;;;;;;;;;;;10.30;99.90;;;;;;4984474;28;19972;-70
2022/09/21 06:25:00;;;;;;;;;;;10.30;99.90;;;;;;4981689;28;19918;-69
2022/09/21 06:27:27;;;;;;;;;;;10.30;99.90;;;;;;4983595;28;20415;-70
2022/09/21 06:29:54;;;;;;;;;;;10.30;99.90;;;;;;4982371;28;20012;-69
2022/09/21 06:32:21;;;;;;;;;;;10.40;99.90;;;;;;4985876;28;19918;-70
2022/09/21 06:34:48;;;;;;;;;;;10.40;99.90;;;;;;4979403;28;20250;-69
2022/09/21 06:37:15;;;;;;;;;;;10.40;99.90;;;;;;4980463;28;20294;-69
2022/09/21 06:39:42;;;;;;;;;;;10.50;99.90;;;;;;4987834;28;20439;-70
2022/09/21 06:42:09;;;;;;;;;;;10.50;99.90;;;;;;4990786;28;19964;-71
2022/09/21 06:44:36;;;;;;;;;;;10.60;99.90;;;;;;4988066;28;19921;-69
2022/09/21 06:47:03;;;;;;;;;;;10.60;99.90;;;;;;4985347;28;19922;-69
2022/09/21 06:49:29;;;;;;;;;;;10.60;99.90;;;;;;4981640;28;19921;-70
2022/09/21 06:51:57;;;;;;;;;;;10.60;99.90;;;;;;4984006;28;19922;-69
2022/09/21 06:54:24;;;;;;;;;;;10.70;99.90;;;;;;4984925;28;20023;-69
2022/09/21 06:56:51;;;;;;;;;;;10.70;99.90;;;;;;4983435;28;19925;-70
2022/09/21 06:59:22;;;;;;;;;;;10.80;99.90;;;;;;4980466;28;20414;-70
2022/09/21 07:01:49;;;;;;;;;;;10.80;99.90;;;;;;4978095;28;20000;-70
2022/09/21 07:04:16;;;;;;;;;;;10.80;99.90;;;;;;4982645;28;20825;-70
2022/09/21 07:06:45;;;;;;;;;;;10.80;99.90;;;;;;4984638;28;19940;-69
2022/09/21 07:09:12;;;;;;;;;;;10.90;99.90;;;;;;4983675;28;19921;-73
2022/09/21 07:11:59;;;;;;;;;;;10.80;99.90;;;;;;5006674;28;19925;-69
2022/09/21 07:14:25;;;;;;;;;;;10.90;99.90;;;;;;5009995;28;19940;-70
2022/09/21 07:16:52;;;;;;;;;;;10.90;99.90;;;;;;5009597;28;19918;-71
2022/09/21 07:19:19;;;;;;;;;;;10.90;99.90;;;;;;5003907;28;19932;-70
2022/09/21 07:21:46;;;;;;;;;;;11.00;99.90;;;;;;5008733;28;20344;-70
2022/09/21 07:24:13;;;;;;;;;;;11.00;99.90;;;;;;5009781;28;19923;-70
2022/09/21 07:26:40;;;;;;;;;;;11.10;99.90;;;;;;5010229;28;19933;-69
2022/09/21 07:29:07;;;;;;;;;;;11.20;99.90;;;;;;5008361;28;19917;-70
2022/09/21 07:31:34;;;;;;;;;;;11.20;99.90;;;;;;5008307;28;19921;-70
2022/09/21 07:34:01;;;;;;;;;;;11.30;99.90;;;;;;5001882;28;19933;-70
2022/09/21 07:36:28;;;;;;;;;;;11.30;99.90;;;;;;5004578;28;20383;-70
2022/09/21 07:38:55;;;;;;;;;;;11.40;99.90;;;;;;5010823;28;19921;-71
2022/09/21 07:41:21;;;;;;;;;;;11.50;99.90;;;;;;5007916;28;19929;-70
2022/09/21 07:43:48;;;;;;;;;;;11.50;99.90;;;;;;5010512;28;20314;-70
2022/09/21 07:46:15;;;;;;;;;;;11.60;99.90;;;;;;5010068;28;19945;-70
2022/09/21 07:48:42;;;;;;;;;;;11.60;99.90;;;;;;5009746;28;20235;-70
2022/09/21 07:51:10;;;;;;;;;;;11.70;99.90;;;;;;5012784;28;19965;-72
2022/09/21 07:53:38;;;;;;;;;;;11.60;99.90;;;;;;5008479;28;20418;-70
2022/09/21 07:56:09;;;;;;;;;;;11.70;99.90;;;;;;5010064;28;20371;-69
2022/09/21 08:01:22;;;;;;;;;;;11.70;99.90;;;;;;5007633;28;19924;-70
2022/09/21 08:03:52;;;;;;;;;;;11.80;99.90;;;;;;5009619;28;19985;-71
2022/09/21 08:06:19;;;;;;;;;;;11.80;99.90;;;;;;5009387;28;20004;-70
2022/09/21 08:08:47;;;;;;;;;;;11.70;99.90;;;;;;5009411;28;20016;-69
2022/09/21 08:11:14;;;;;;;;;;;11.80;99.90;;;;;;5008359;28;20598;-70
2022/09/21 08:13:41;;;;;;;;;;;11.80;99.90;;;;;;5022790;28;20466;-70
2022/09/21 08:16:08;;;;;;;;;;;11.80;99.90;;;;;;5005237;28;20004;-70
2022/09/21 08:18:36;;;;;;;;;;;11.80;99.90;;;;;;5009567;28;19924;-71
2022/09/21 08:21:03;;;;;;;;;;;11.80;99.90;;;;;;5011658;28;19939;-70
2022/09/21 08:23:30;;;;;;;;;;;11.80;99.90;;;;;;5007056;28;20099;-70
2022/09/21 08:26:00;;;;;;;;;;;11.80;99.90;;;;;;5009230;28;19989;-70
2022/09/21 08:28:28;;;;;;;;;;;11.80;99.90;;;;;;5004076;28;20381;-70
2022/09/21 08:30:58;;;;;;;;;;;11.80;99.90;;;;;;5008901;28;19933;-70
2022/09/21 08:33:26;;;;;;;;;;;11.90;99.90;;;;;;5009423;28;20115;-70
2022/09/21 08:35:59;;;;;;;;;;;11.90;99.90;;;;;;5017200;28;19956;-70
2022/09/21 08:38:26;;;;;;;;;;;12.00;99.90;;;;;;5006680;28;19917;-70
2022/09/21 08:40:54;;;;;;;;;;;12.00;99.90;;;;;;5009495;28;19924;-71
2022/09/21 08:43:28;;;;;;;;;;;12.10;99.90;;;;;;5007082;28;20000;-70
2022/09/21 08:45:56;;;;;;;;;;;12.20;99.90;;;;;;5008823;28;20163;-70
2022/09/21 08:48:25;;;;;;;;;;;12.40;99.90;;;;;;5009080;28;19952;-70
2022/09/21 08:51:04;;;;;;;;;;;12.50;99.90;;;;;;5008757;28;20512;-70
2022/09/21 08:53:33;;;;;;;;;;;12.60;99.90;;;;;;4998305;28;20331;-71
2022/09/21 08:56:01;;;;;;;;;;;12.60;99.90;;;;;;5009359;28;20343;-70
2022/09/21 08:58:29;;;;;;;;;;;12.60;99.90;;;;;;5008773;28;19921;-70
2022/09/21 09:00:59;;;;;;;;;;;12.60;99.90;;;;;;5006721;28;20338;-72
2022/09/21 09:03:32;;;;;;;;;;;12.60;99.90;;;;;;5007128;28;19917;-70
2022/09/21 09:06:08;;;;;;;;;;;12.50;99.90;;;;;;5008747;28;20320;-70
2022/09/21 09:08:45;;;;;;;;;;;12.50;99.90;;;;;;5007995;28;19922;-70
2022/09/21 09:11:19;;;;;;;;;;;12.50;99.90;;;;;;5009021;28;20076;-71
2022/09/21 09:13:52;;;;;;;;;;;12.50;99.90;;;;;;5006311;28;19944;-71
2022/09/21 09:16:37;;;;;;;;;;;12.60;99.90;;;;;;5007484;28;20004;-70
2022/09/21 09:19:22;;;;;;;;;;;12.60;99.90;;;;;;5008804;28;19918;-69
2022/09/21 09:21:49;;;;;;;;;;;12.60;99.90;;;;;;5006969;28;20313;-71
2022/09/21 09:24:28;;;;;;;;;;;12.70;99.90;;;;;;5007628;28;20017;-70
2022/09/21 09:26:59;;;;;;;;;;;12.70;99.90;;;;;;4997995;28;19927;-71
2022/09/21 09:29:44;;;;;;;;;;;12.70;99.90;;;;;;5002500;28;19929;-70
2022/09/21 09:32:13;;;;;;;;;;;12.60;99.90;;;;;;5008665;28;20279;-70
2022/09/21 09:34:52;;;;;;;;;;;12.60;99.90;;;;;;4995256;28;19918;-72
2022/09/21 09:37:22;;;;;;;;;;;12.60;99.90;;;;;;5005702;28;20035;-70
2022/09/21 09:39:53;;;;;;;;;;;12.70;99.90;;;;;;5008482;28;20459;-70
2022/09/21 09:42:20;;;;;;;;;;;12.70;99.90;;;;;;5007245;28;19997;-70
2022/09/21 09:44:59;;;;;;;;;;;12.60;99.90;;;;;;5008576;28;19960;-70
2022/09/21 09:47:35;;;;;;;;;;;12.60;99.90;;;;;;4998868;28;20003;-71
2022/09/21 09:50:09;;;;;;;;;;;12.60;99.90;;;;;;5008145;28;20322;-71
2022/09/21 09:52:36;;;;;;;;;;;12.60;99.90;;;;;;5007210;28;19921;-71
2022/09/21 09:55:15;;;;;;;;;;;12.60;99.90;;;;;;5007450;28;19928;-70
2022/09/21 09:57:42;;;;;;;;;;;12.60;99.90;;;;;;5005905;28;19917;-71
2022/09/21 10:00:12;;;;;;;;;;;12.50;99.90;;;;;;5007743;28;19917;-70
2022/09/21 10:02:52;;;;;;;;;;;12.60;99.90;;;;;;5008318;28;19924;-71
2022/09/21 10:05:22;;;;;;;;;;;12.50;99.90;;;;;;5006430;28;20459;-70
2022/09/21 10:07:50;;;;;;;;;;;12.50;99.90;;;;;;5007270;28;19945;-71
2022/09/21 10:10:23;;;;;;;;;;;12.50;99.90;;;;;;5006493;28;19924;-70
2022/09/21 10:12:51;;;;;;;;;;;12.50;99.90;;;;;;4999291;28;19924;-70
2022/09/21 10:15:19;;;;;;;;;;;12.60;99.90;;;;;;5006508;28;20008;-71
2022/09/21 10:17:46;;;;;;;;;;;12.70;99.90;;;;;;5008611;28;20019;-71
2022/09/21 10:20:15;;;;;;;;;;;12.70;99.90;;;;;;5002187;28;19917;-70
2022/09/21 10:22:46;;;;;;;;;;;12.80;99.90;;;;;;5007355;28;20345;-70
2022/09/21 10:25:15;;;;;;;;;;;12.80;99.90;;;;;;5006579;28;19921;-70
2022/09/21 10:27:44;;;;;;;;;;;12.80;99.90;;;;;;5007536;28;19917;-72
2022/09/21 10:30:29;;;;;;;;;;;12.80;99.90;;;;;;5008159;28;20014;-71
2022/09/21 10:32:57;;;;;;;;;;;12.90;99.90;;;;;;5007895;28;19929;-70
2022/09/21 10:35:24;;;;;;;;;;;13.00;99.90;;;;;;5006201;28;19923;-71
2022/09/21 10:38:15;;;;;;;;;;;13.10;99.90;;;;;;5006642;28;20432;-71
2022/09/21 10:40:48;;;;;;;;;;;13.10;99.90;;;;;;5007610;28;20286;-70
2022/09/21 10:43:28;;;;;;;;;;;13.20;99.90;;;;;;5006025;28;19939;-70
2022/09/21 10:45:59;;;;;;;;;;;13.20;99.90;;;;;;5010177;28;20027;-70
2022/09/21 10:48:26;;;;;;;;;;;13.20;99.90;;;;;;5011134;28;19971;-69
2022/09/21 10:50:54;;;;;;;;;;;13.20;99.90;;;;;;5010877;28;19921;-71
2022/09/21 10:53:27;;;;;;;;;;;13.20;99.90;;;;;;5008866;28;19921;-70
2022/09/21 10:55:59;;;;;;;;;;;13.30;99.90;;;;;;5011591;28;20374;-71
2022/09/21 10:59:02;;;;;;;;;;;13.30;99.90;;;;;;5011135;28;19921;-71
2022/09/21 11:01:30;;;;;;;;;;;13.40;99.90;;;;;;5009863;28;19957;-71
2022/09/21 11:04:04;;;;;;;;;;;13.30;99.90;;;;;;5011215;28;19921;-71
2022/09/21 11:06:37;;;;;;;;;;;13.30;99.90;;;;;;5009911;28;19918;-70
2022/09/21 11:09:03;;;;;;;;;;;13.30;99.90;;;;;;5010857;28;19975;-70
2022/09/21 11:11:33;;;;;;;;;;;13.30;99.90;;;;;;5009591;28;20434;-70
2022/09/21 11:14:06;;;;;;;;;;;13.30;99.90;;;;;;5006533;28;19917;-71
2022/09/21 11:16:39;;;;;;;;;;;13.30;99.90;;;;;;4997045;28;20004;-70
2022/09/21 11:19:15;;;;;;;;;;;13.40;99.90;;;;;;5011168;28;20016;-70
2022/09/21 11:21:54;;;;;;;;;;;13.40;99.90;;;;;;5009067;28;20270;-70
2022/09/21 11:24:34;;;;;;;;;;;13.40;99.90;;;;;;5004453;28;19924;-70
2022/09/21 11:27:05;;;;;;;;;;;13.50;99.90;;;;;;5011608;28;19962;-70
2022/09/21 11:29:38;;;;;;;;;;;13.50;99.90;;;;;;5009071;28;19917;-70
2022/09/21 11:32:08;;;;;;;;;;;13.40;99.90;;;;;;5011300;28;19917;-71
2022/09/21 11:34:50;;;;;;;;;;;13.60;99.90;;;;;;5010607;28;19922;-70
2022/09/21 11:37:17;;;;;;;;;;;13.60;99.90;;;;;;5003614;28;19917;-70
2022/09/21 11:40:19;;;;;;;;;;;13.60;99.90;;;;;;5011589;28;19982;-70
2022/09/21 11:42:46;;;;;;;;;;;13.60;99.90;;;;;;4983047;28;19921;-70
2022/09/21 11:45:33;;;;;;;;;;;13.60;99.90;;;;;;5005379;28;20016;-69
2022/09/21 11:48:06;;;;;;;;;;;13.50;99.90;;;;;;5010503;28;20283;-71
2022/09/21 11:50:33;;;;;;;;;;;13.60;99.90;;;;;;5010353;28;20414;-70
2022/09/21 11:53:05;;;;;;;;;;;13.60;99.90;;;;;;5007820;28;19929;-70
2022/09/21 11:55:32;;;;;;;;;;;13.60;99.90;;;;;;5009184;28;19924;-71
2022/09/21 11:58:13;;;;;;;;;;;13.60;99.90;;;;;;5010316;28;19957;-71
2022/09/21 12:01:07;;;;;;;;;;;13.60;99.90;;;;;;5011079;28;19928;-71
2022/09/21 12:03:34;;;;;;;;;;;13.70;99.90;;;;;;4992785;28;19933;-71
2022/09/21 12:06:10;;;;;;;;;;;13.80;99.90;;;;;;5010590;28;19924;-71
2022/09/21 12:08:56;;;;;;;;;;;13.80;99.90;;;;;;5010445;28;20000;-71
2022/09/21 12:11:28;;;;;;;;;;;13.80;99.90;;;;;;5001540;28;20017;-71
2022/09/21 12:14:07;;;;;;;;;;;14.00;99.90;;;;;;5007415;28;19945;-71
2022/09/21 12:16:34;;;;;;;;;;;13.90;99.90;;;;;;5010403;28;19921;-70
2022/09/21 12:19:08;;;;;;;;;;;13.80;99.90;;;;;;5011294;28;19971;-71
2022/09/21 12:21:40;;;;;;;;;;;13.80;99.90;;;;;;5008028;28;19928;-71
2022/09/21 12:24:12;;;;;;;;;;;13.70;99.90;;;;;;5010833;28;20048;-71
2022/09/21 12:26:41;;;;;;;;;;;13.70;99.90;;;;;;5014412;28;20530;-71
2022/09/21 12:29:14;;;;;;;;;;;13.80;99.90;;;;;;5010123;28;19932;-71
2022/09/21 12:31:43;;;;;;;;;;;13.80;99.90;;;;;;5007772;28;19917;-71
2022/09/21 12:34:15;;;;;;;;;;;13.80;99.90;;;;;;5001015;28;20108;-70
2022/09/21 12:36:44;;;;;;;;;;;13.60;99.90;;;;;;5006949;28;20343;-71
2022/09/21 12:39:17;;;;;;;;;;;13.60;99.90;;;;;;5010346;28;20000;-71
2022/09/21 12:41:52;;;;;;;;;;;13.50;99.90;;;;;;5008907;28;20253;-72
2022/09/21 12:44:50;;;;;;;;;;;13.50;99.90;;;;;;5009957;28;19923;-71
2022/09/21 12:47:26;;;;;;;;;;;13.60;99.90;;;;;;5008401;28;19917;-70
2022/09/21 12:49:56;;;;;;;;;;;13.50;99.90;;;;;;5006580;28;19944;-72
2022/09/21 12:52:26;;;;;;;;;;;13.50;99.90;;;;;;5009145;28;20236;-72
2022/09/21 12:55:00;;;;;;;;;;;13.60;99.90;;;;;;5010281;28;19948;-71
2022/09/21 12:57:30;;;;;;;;;;;13.60;99.90;;;;;;5008941;28;19917;-72
2022/09/21 13:00:21;;;;;;;;;;;13.70;99.90;;;;;;5011096;28;19921;-70
2022/09/21 13:02:54;;;;;;;;;;;13.60;99.90;;;;;;5010286;28;20330;-72
2022/09/21 13:05:27;;;;;;;;;;;13.70;99.90;;;;;;5007987;28;19925;-70
2022/09/21 13:07:54;;;;;;;;;;;13.70;99.90;;;;;;5005981;28;19918;-71
2022/09/21 13:10:27;;;;;;;;;;;13.70;99.90;;;;;;5007464;28;19918;-69
2022/09/21 13:12:58;;;;;;;;;;;13.60;99.90;;;;;;5009902;28;19926;-73
2022/09/21 13:15:26;;;;;;;;;;;13.70;99.90;;;;;;5002912;28;20264;-71
2022/09/21 13:17:58;;;;;;;;;;;13.80;99.90;;;;;;5009636;28;19917;-70
2022/09/21 13:20:25;;;;;;;;;;;13.80;99.90;;;;;;4998531;28;19928;-71
2022/09/21 13:23:00;;;;;;;;;;;13.80;99.90;;;;;;5008976;28;19917;-71
2022/09/21 13:25:28;;;;;;;;;;;13.90;99.90;;;;;;5008244;28;20023;-71
2022/09/21 13:28:02;;;;;;;;;;;14.00;99.90;;;;;;5011881;28;19924;-71
2022/09/21 13:30:31;;;;;;;;;;;13.90;99.90;;;;;;5008981;28;19983;-72
2022/09/21 13:32:58;;;;;;;;;;;14.00;99.90;;;;;;5009030;28;19952;-71
2022/09/21 13:35:44;;;;;;;;;;;14.10;99.90;;;;;;5008512;28;19921;-71
2022/09/21 13:38:41;;;;;;;;;;;14.00;99.90;;;;;;5009162;28;19980;-72
2022/09/21 13:41:17;;;;;;;;;;;14.00;99.90;;;;;;4994652;28;20371;-71
2022/09/21 13:43:56;;;;;;;;;;;14.00;99.90;;;;;;5004661;28;19933;-72
2022/09/21 13:46:34;;;;;;;;;;;14.10;99.90;;;;;;5009589;28;20322;-71
2022/09/21 13:49:10;;;;;;;;;;;14.10;99.90;;;;;;5009653;28;20621;-72
2022/09/21 13:51:52;;;;;;;;;;;14.20;99.90;;;;;;5007355;28;20263;-71
2022/09/21 13:54:20;;;;;;;;;;;14.30;99.90;;;;;;5009880;28;19937;-70
2022/09/21 13:56:55;;;;;;;;;;;14.40;99.90;;;;;;5009911;28;19980;-71
2022/09/21 13:59:23;;;;;;;;;;;14.50;99.90;;;;;;5008985;28;20000;-70
2022/09/21 14:01:50;;;;;;;;;;;14.60;99.90;;;;;;5010155;28;19923;-71
2022/09/21 14:04:22;;;;;;;;;;;14.60;99.90;;;;;;5009334;28;19928;-71
2022/09/21 14:06:49;;;;;;;;;;;14.50;99.90;;;;;;5007791;28;19993;-71
2022/09/21 14:09:22;;;;;;;;;;;14.60;99.90;;;;;;5007109;28;20008;-70
2022/09/21 14:12:01;;;;;;;;;;;14.50;99.90;;;;;;4998382;28;20007;-72
2022/09/21 14:14:32;;;;;;;;;;;14.80;99.90;;;;;;4993623;28;19922;-71
2022/09/21 14:16:59;;;;;;;;;;;14.90;99.90;;;;;;4997564;28;19918;-71
2022/09/21 14:19:28;;;;;;;;;;;14.80;99.90;;;;;;4989852;28;20645;-72
2022/09/21 14:22:07;;;;;;;;;;;14.80;99.90;;;;;;4996813;28;19969;-71
2022/09/21 14:24:38;;;;;;;;;;;14.90;99.90;;;;;;5002607;28;19922;-72
2022/09/21 14:27:13;;;;;;;;;;;14.80;99.90;;;;;;5008292;28;20012;-71
2022/09/21 14:29:43;;;;;;;;;;;14.80;99.90;;;;;;4996796;28;19917;-72
2022/09/21 14:32:13;;;;;;;;;;;15.10;99.90;;;;;;4996331;28;19917;-71
2022/09/21 14:34:40;;;;;;;;;;;15.20;99.90;;;;;;5009930;28;20336;-72
2022/09/21 14:37:19;;;;;;;;;;;15.30;99.90;;;;;;5009705;28;19985;-72
2022/09/21 14:39:51;;;;;;;;;;;15.40;99.90;;;;;;5008580;28;19918;-72
2022/09/21 14:42:22;;;;;;;;;;;15.40;99.90;;;;;;5011174;28;19929;-70
2022/09/21 14:44:50;;;;;;;;;;;15.40;99.90;;;;;;5011587;28;19944;-72